Time;durP1;ratioP1;P1;durP2;ratioP2;P2;SDS_P1;SDS_P2;PMS_P1;PMS_P2;Temp;Humidity;BMP_temperature;BMP_pressure;BME280_temperature;BME280_humidity;BME280_pressure;Samples;Min_cycle;Max_cycle;Signal;HPM_P1;HPM_P2
2021/05/11 00:01:07;;;;;;;5.07;2.43;;;;;;;13.62;75.76;100436.06;5035276;28;20239;-73
2021/05/11 00:03:32;;;;;;;3.83;2.23;;;;;;;13.64;76.60;100433.28;5034015;28;20223;-72
2021/05/11 00:05:58;;;;;;;4.97;2.80;;;;;;;13.72;75.89;100412.13;5034822;28;20203;-69
2021/05/11 00:08:23;;;;;;;2.37;2.17;;;;;;;13.65;76.39;100413.53;5034403;28;20623;-74
2021/05/11 00:10:48;;;;;;;4.93;2.13;;;;;;;13.55;77.00;100404.44;5017412;28;20226;-69
2021/05/11 00:13:14;;;;;;;3.17;2.57;;;;;;;13.57;76.98;100397.16;5034979;28;20625;-71
2021/05/11 00:15:39;;;;;;;2.37;2.17;;;;;;;13.59;77.09;100396.06;5016999;28;20242;-70
2021/05/11 00:18:04;;;;;;;3.90;2.40;;;;;;;13.60;77.21;100386.19;5017114;28;20184;-71
2021/05/11 00:20:30;;;;;;;2.80;2.30;;;;;;;13.66;76.85;100388.44;5034928;28;20716;-69
2021/05/11 00:22:55;;;;;;;3.07;2.37;;;;;;;13.60;76.97;100386.19;5016826;28;20196;-69
2021/05/11 00:25:20;;;;;;;5.00;2.53;;;;;;;13.65;76.70;100389.41;5034978;28;20227;-70
2021/05/11 00:27:46;;;;;;;3.00;2.20;;;;;;;13.58;77.33;100378.25;5034568;28;20207;-70
2021/05/11 00:30:11;;;;;;;3.80;2.40;;;;;;;13.66;77.27;100361.59;5034586;28;20204;-70
2021/05/11 00:32:37;;;;;;;3.97;2.17;;;;;;;13.58;76.89;100340.72;5034540;28;20275;-70
2021/05/11 00:35:03;;;;;;;4.10;2.50;;;;;;;13.62;77.56;100333.31;5034688;28;20176;-70
2021/05/11 00:37:28;;;;;;;2.53;2.13;;;;;;;13.67;77.17;100313.22;5033347;28;20180;-70
2021/05/11 00:39:53;;;;;;;2.63;2.40;;;;;;;13.75;76.80;100328.75;5034415;28;20229;-70
2021/05/11 00:42:19;;;;;;;3.07;2.77;;;;;;;13.85;76.11;100345.03;5033600;28;20195;-70
2021/05/11 00:44:44;;;;;;;5.07;2.80;;;;;;;13.86;75.48;100350.28;5034208;28;20267;-70
2021/05/11 00:47:09;;;;;;;5.53;3.37;;;;;;;13.82;75.52;100351.47;5016310;28;20215;-70
2021/05/11 00:49:36;;;;;;;3.60;3.00;;;;;;;13.59;77.32;100331.72;5016921;28;20188;-70
2021/05/11 00:52:04;;;;;;;2.70;2.50;;;;;;;13.63;76.68;100337.69;5034123;28;20541;-70
2021/05/11 00:54:30;;;;;;;4.83;2.50;;;;;;;13.59;77.17;100328.16;5032770;28;20648;-70
2021/05/11 00:56:55;;;;;;;3.67;2.70;;;;;;;13.61;76.92;100324.41;5032960;28;20234;-70
2021/05/11 00:59:25;;;;;;;3.70;2.50;;;;;;;13.65;77.00;100327.72;5034628;28;20234;-71
2021/05/11 01:01:51;;;;;;;4.97;3.00;;;;;;;13.76;76.37;100327.81;5034149;28;20275;-70
2021/05/11 01:04:17;;;;;;;3.93;2.47;;;;;;;13.76;76.32;100327.81;5016111;28;20215;-70
2021/05/11 01:06:42;;;;;;;3.60;2.33;;;;;;;13.88;75.76;100328.72;5032541;28;20199;-69
2021/05/11 01:09:07;;;;;;;2.37;2.17;;;;;;;13.89;75.08;100322.38;5034163;28;20202;-70
2021/05/11 01:11:35;;;;;;;4.77;2.57;;;;;;;13.85;76.26;100329.78;5016010;28;20222;-70
2021/05/11 01:14:00;;;;;;;3.63;2.80;;;;;;;13.83;75.62;100328.19;5032504;28;20536;-70
2021/05/11 01:16:28;;;;;;;2.93;2.60;;;;;;;13.75;76.31;100316.22;5032366;28;20199;-70
2021/05/11 01:18:56;;;;;;;3.47;2.60;;;;;;;13.80;76.05;100336.47;5032060;28;20279;-70
2021/05/11 01:24:20;;;;;;;4.70;3.13;;;;;;;13.72;76.70;100337.00;5023963;28;20192;-70
2021/05/11 01:50:29;;;;;;;6.53;3.87;;;;;;;12.98;80.07;100341.44;5032593;28;20167;-70
2021/05/11 01:53:04;;;;;;;4.50;3.40;;;;;;;12.99;80.12;100336.94;5016870;28;20242;-69
2021/05/11 01:55:50;;;;;;;5.07;3.70;;;;;;;12.87;79.84;100330.63;5032091;28;20191;-69
2021/05/11 02:22:46;;;;;;;7.13;4.80;;;;;;;12.70;81.35;100301.50;5032718;28;20192;-70
2021/05/11 02:25:15;;;;;;;5.20;4.07;;;;;;;12.72;81.10;100300.44;5031936;28;20156;-70
2021/05/11 02:27:42;;;;;;;10.13;5.10;;;;;;;12.77;80.93;100300.13;5031507;28;20199;-69
2021/05/11 02:30:08;;;;;;;6.13;4.80;;;;;;;12.66;81.42;100292.84;5032555;28;20266;-69
2021/05/11 02:32:38;;;;;;;6.93;4.63;;;;;;;12.62;81.65;100295.81;5035525;28;20223;-69
2021/05/11 02:35:04;;;;;;;9.33;4.80;;;;;;;12.58;81.96;100288.97;5035505;28;20223;-69
2021/05/11 02:37:29;;;;;;;5.90;5.00;;;;;;;12.60;81.77;100290.56;5035787;28;20200;-69
2021/05/11 02:39:54;;;;;;;6.37;4.57;;;;;;;12.59;81.52;100286.19;5037085;28;20291;-69
2021/05/11 02:42:20;;;;;;;5.30;4.53;;;;;;;12.66;81.63;100278.59;5018726;28;20274;-69
2021/05/11 02:44:47;;;;;;;7.07;5.33;;;;;;;12.57;81.55;100281.91;5035824;28;20186;-69
2021/05/11 02:47:12;;;;;;;6.50;4.77;;;;;;;12.64;80.94;100284.06;5035098;28;20620;-69
2021/05/11 02:49:44;;;;;;;7.47;5.17;;;;;;;12.44;82.13;100279.22;5018904;28;20216;-69
2021/05/11 02:52:10;;;;;;;6.53;5.10;;;;;;;12.39;82.32;100278.69;5035573;28;20157;-69
2021/05/11 02:54:35;;;;;;;5.83;5.20;;;;;;;12.42;82.14;100279.34;5035448;28;20176;-69
2021/05/11 02:57:01;;;;;;;6.63;5.00;;;;;;;12.34;82.66;100272.81;5036325;28;20258;-69
2021/05/11 02:59:26;;;;;;;7.90;5.37;;;;;;;12.44;81.80;100273.88;5034934;28;20230;-69
2021/05/11 03:01:51;;;;;;;9.73;6.30;;;;;;;12.26;82.93;100273.31;5034985;28;20200;-69
2021/05/11 03:04:17;;;;;;;7.83;5.63;;;;;;;12.16;83.96;100277.56;5034843;28;20184;-69
2021/05/11 03:06:42;;;;;;;6.93;5.53;;;;;;;12.15;83.61;100271.38;5035996;28;20192;-69
2021/05/11 03:09:07;;;;;;;9.13;6.70;;;;;;;12.11;84.23;100271.69;5036497;28;20226;-69
2021/05/11 03:11:32;;;;;;;7.37;5.83;;;;;;;12.10;84.05;100273.50;5035634;28;20242;-69
2021/05/11 03:13:58;;;;;;;6.77;5.47;;;;;;;12.06;84.48;100266.66;5034852;28;20226;-69
2021/05/11 03:16:24;;;;;;;8.20;6.17;;;;;;;12.06;84.83;100265.81;5036209;28;20680;-70
2021/05/11 03:18:49;;;;;;;6.40;5.63;;;;;;;12.06;84.70;100268.47;5036151;28;20172;-70
2021/05/11 03:21:15;;;;;;;6.43;4.97;;;;;;;12.03;84.81;100258.84;5036299;28;20203;-69
2021/05/11 03:23:40;;;;;;;6.50;5.60;;;;;;;12.09;84.73;100261.09;5034851;28;20295;-69
2021/05/11 03:26:05;;;;;;;8.43;6.33;;;;;;;12.20;83.80;100257.69;5035061;28;20196;-69
2021/05/11 03:28:31;;;;;;;9.63;6.40;;;;;;;12.27;84.18;100260.81;5035947;28;20180;-69
2021/05/11 03:30:56;;;;;;;6.87;5.70;;;;;;;12.35;83.93;100263.81;5035938;28;20184;-69
2021/05/11 03:33:21;;;;;;;9.23;6.50;;;;;;;12.28;83.70;100255.34;5034638;28;20180;-69
2021/05/11 03:35:47;;;;;;;9.10;6.67;;;;;;;12.24;84.11;100261.00;5047909;22;20188;-73
2021/05/11 03:38:12;;;;;;;7.23;6.40;;;;;;;12.28;83.84;100252.69;5019762;28;20184;-74
2021/05/11 03:40:38;;;;;;;7.60;6.30;;;;;;;12.25;84.05;100249.34;5035207;28;20181;-75
2021/05/11 03:43:11;;;;;;;7.60;6.07;;;;;;;12.39;83.44;100249.25;5019184;28;20204;-74
2021/05/11 03:45:45;;;;;;;9.20;6.97;;;;;;;12.27;83.64;100237.59;5035345;28;20167;-74
2021/05/11 03:48:10;;;;;;;9.80;7.17;;;;;;;12.33;82.98;100247.88;5036012;28;20198;-74
2021/05/11 03:50:36;;;;;;;9.00;6.90;;;;;;;12.35;83.64;100243.25;5038741;28;20238;-76
2021/05/11 03:53:02;;;;;;;7.73;6.90;;;;;;;12.25;83.82;100249.34;5021604;28;20176;-74
2021/05/11 03:55:27;;;;;;;11.00;6.97;;;;;;;12.27;83.86;100252.78;5040604;28;20176;-74
2021/05/11 03:57:52;;;;;;;9.67;6.83;;;;;;;12.25;83.50;100243.97;5023455;28;20183;-75
2021/05/11 04:00:21;;;;;;;10.20;7.17;;;;;;;12.27;84.27;100237.59;5036123;28;20274;-75
2021/05/11 04:02:47;;;;;;;10.10;7.83;;;;;;;12.34;83.49;100244.22;5038297;28;20203;-74
2021/05/11 04:05:14;;;;;;;8.80;6.53;;;;;;;12.45;82.82;100244.31;5019997;28;20662;-74
2021/05/11 04:07:47;;;;;;;8.40;6.87;;;;;;;12.43;82.48;100243.56;5036809;28;20245;-74
2021/05/11 04:10:28;;;;;;;8.63;7.40;;;;;;;12.34;83.69;100240.69;5022456;28;20192;-75
2021/05/11 04:18:21;;;;;;;9.40;7.10;;;;;;;12.47;83.53;100254.91;5037131;28;20167;-74
2021/05/11 04:20:47;;;;;;;10.83;7.40;;;;;;;12.58;82.56;100246.13;5035210;28;20184;-74
2021/05/11 04:23:12;;;;;;;9.53;7.40;;;;;;;12.57;82.59;100242.59;5036610;28;20200;-75
2021/05/11 04:25:38;;;;;;;9.90;7.60;;;;;;;12.72;82.15;100243.34;5037606;28;20183;-78
2021/05/11 04:28:03;;;;;;;8.67;7.33;;;;;;;12.88;80.40;100243.97;5035654;28;20204;-75
2021/05/11 04:30:29;;;;;;;8.50;7.43;;;;;;;12.77;81.37;100246.56;5035516;28;20202;-74
2021/05/11 04:32:54;;;;;;;8.97;7.10;;;;;;;12.79;81.30;100247.31;5035736;28;20203;-75
2021/05/11 04:35:19;;;;;;;11.33;7.60;;;;;;;12.82;81.34;100242.59;5018472;28;20223;-75
2021/05/11 04:37:48;;;;;;;13.07;8.13;;;;;;;12.81;81.78;100240.00;5034066;28;20211;-76
2021/05/11 04:40:14;;;;;;;8.20;6.40;;;;;;;12.96;80.59;100246.09;5035505;28;20176;-75
2021/05/11 04:42:42;;;;;;;8.77;6.97;;;;;;;13.06;80.52;100257.88;5034592;28;20204;-75
2021/05/11 04:45:08;;;;;;;10.40;6.00;;;;;;;13.49;78.71;100265.47;5034398;28;20176;-74
2021/05/11 04:47:50;;;;;;;7.07;6.20;;;;;;;13.66;76.92;100268.59;5034877;28;20293;-74
2021/05/11 04:50:27;;;;;;;9.30;6.67;;;;;;;13.51;78.28;100255.50;5035167;28;20585;-75
2021/05/11 04:52:52;;;;;;;8.63;5.63;;;;;;;13.43;78.33;100243.53;5038459;28;20182;-74
2021/05/11 04:55:18;;;;;;;7.53;6.10;;;;;;;13.52;78.65;100235.75;5034822;28;20637;-74
2021/05/11 04:57:44;;;;;;;6.37;5.40;;;;;;;13.81;77.81;100223.72;5034597;28;20204;-76
2021/05/11 05:00:11;;;;;;;6.70;5.13;;;;;;;13.90;76.94;100216.78;5017664;28;20186;-76
2021/05/11 05:02:40;;;;;;;6.10;5.50;;;;;;;13.82;76.80;100213.84;5034585;28;20632;-75
2021/05/11 05:05:06;;;;;;;6.13;4.97;;;;;;;13.94;76.79;100210.22;5033482;28;20181;-76
2021/05/11 05:07:31;;;;;;;6.40;5.70;;;;;;;13.96;76.83;100211.78;5034662;28;20287;-76
2021/05/11 05:09:57;;;;;;;7.77;4.60;;;;;;;13.98;77.33;100203.63;5035766;28;20179;-77
2021/05/11 05:12:22;;;;;;;8.60;4.97;;;;;;;14.01;76.23;100198.03;5035023;28;20207;-75
2021/05/11 05:14:47;;;;;;;4.30;3.90;;;;;;;14.01;76.50;100209.63;5035051;28;20230;-74
2021/05/11 05:17:13;;;;;;;6.63;4.50;;;;;;;14.01;76.74;100195.34;5034735;28;20572;-75
2021/05/11 05:19:38;;;;;;;5.00;4.13;;;;;;;14.06;76.42;100194.00;5033444;28;20632;-70
2021/05/11 05:22:05;;;;;;;4.90;3.90;;;;;;;14.22;75.33;100184.78;5034628;28;20207;-68
2021/05/11 05:24:35;;;;;;;6.40;3.60;;;;;;;14.27;75.53;100183.44;5035283;28;20173;-70
2021/05/11 05:27:10;;;;;;;4.13;3.50;;;;;;;14.22;76.00;100184.78;5032734;28;20298;-69
2021/05/11 05:29:35;;;;;;;4.60;3.93;;;;;;;14.38;74.70;100174.53;5033390;28;20160;-69
2021/05/11 05:32:01;;;;;;;6.43;3.63;;;;;;;14.37;74.48;100167.47;5034110;28;20180;-69
2021/05/11 05:34:26;;;;;;;4.60;3.60;;;;;;;14.35;74.66;100164.03;5034649;28;20579;-69
2021/05/11 05:36:51;;;;;;;3.40;3.00;;;;;;;14.82;73.88;100152.22;5034261;28;20275;-69
2021/05/11 05:39:17;;;;;;;4.73;3.50;;;;;;;15.01;72.40;100146.19;5032949;28;20180;-69
2021/05/11 05:41:42;;;;;;;5.47;3.40;;;;;;;15.21;71.72;100142.69;5034440;28;20180;-68
2021/05/11 05:44:07;;;;;;;5.80;3.40;;;;;;;14.82;72.59;100141.47;5032361;28;20176;-68
2021/05/11 05:46:33;;;;;;;5.53;4.30;;;;;;;15.13;72.27;100150.56;5015579;28;20207;-67
2021/05/11 05:48:58;;;;;;;5.83;3.37;;;;;;;15.22;71.36;100160.53;5032155;28;20183;-69
2021/05/11 05:51:24;;;;;;;6.00;3.77;;;;;;;15.07;72.43;100160.97;5032029;28;20187;-69
2021/05/11 05:53:49;;;;;;;8.57;3.10;;;;;;;15.03;71.83;100152.31;5032086;28;20217;-73
2021/05/11 05:56:17;;;;;;;6.03;3.30;;;;;;;14.99;72.25;100156.22;5032459;28;20204;-73
2021/05/11 05:58:42;;;;;;;4.67;3.73;;;;;;;15.26;70.84;100151.25;5015370;28;20180;-72
2021/05/11 06:01:09;;;;;;;3.10;2.77;;;;;;;15.28;70.49;100152.00;5032592;28;20191;-73
2021/05/11 06:06:11;;;;;;;4.87;3.73;;;;;;;15.34;70.55;100147.94;5034105;28;20304;-73
2021/05/11 06:08:38;;;;;;;6.37;3.83;;;;;;;15.49;70.32;100145.78;5032674;28;20176;-72
2021/05/11 06:11:27;;;;;;;3.13;2.70;;;;;;;15.42;69.18;100152.66;5032696;28;20179;-74
2021/05/11 06:14:22;;;;;;;4.97;2.87;;;;;;;15.22;70.78;100144.41;5032974;28;20612;-73
2021/05/11 06:19:22;;;;;;;3.60;2.90;;;;;;;15.68;68.96;100140.59;5032356;28;20219;-76
2021/05/11 06:21:49;;;;;;;3.97;3.00;;;;;;;15.70;68.73;100137.78;5032345;28;20540;-75
2021/05/11 06:24:14;;;;;;;12.27;3.07;;;;;;;15.54;68.63;100125.59;5033537;28;20263;-74
2021/05/11 06:26:39;;;;;;;4.40;2.73;;;;;;;15.67;69.06;100144.28;5032046;28;20218;-74
2021/05/11 06:29:07;;;;;;;5.10;2.90;;;;;;;15.47;69.56;100137.00;5033633;28;20180;-74
2021/05/11 06:31:32;;;;;;;5.50;2.90;;;;;;;15.57;69.51;100127.16;5033051;28;20263;-74
2021/05/11 06:33:58;;;;;;;6.17;3.50;;;;;;;15.76;68.48;100121.13;5033796;28;20183;-73
2021/05/11 06:36:24;;;;;;;3.77;3.03;;;;;;;15.57;69.01;100119.09;5032091;28;20200;-74
2021/05/11 06:38:49;;;;;;;5.00;3.10;;;;;;;15.32;70.55;100118.50;5032904;28;20184;-74
2021/05/11 06:41:14;;;;;;;3.70;2.20;;;;;;;15.85;68.90;100123.84;5032092;28;20552;-75
2021/05/11 06:43:42;;;;;;;4.50;3.10;;;;;;;15.53;69.68;100121.19;5031894;28;20200;-75
2021/05/11 06:46:31;;;;;;;4.27;2.50;;;;;;;16.00;68.73;100128.94;5015213;28;20192;-73
2021/05/11 06:49:15;;;;;;;5.30;3.10;;;;;;;16.15;67.74;100127.59;5031300;28;20192;-73
2021/05/11 06:54:08;;;;;;;3.43;2.83;;;;;;;15.89;68.77;100108.31;5032980;28;20242;-72
2021/05/11 06:56:33;;;;;;;5.70;3.67;;;;;;;15.77;68.88;100095.91;5032675;28;20195;-72
2021/05/11 06:58:59;;;;;;;6.73;3.70;;;;;;;15.79;68.90;100100.19;5031400;28;20176;-74
2021/05/11 07:01:24;;;;;;;3.57;2.90;;;;;;;15.94;69.31;100096.16;5031950;28;20176;-73
2021/05/11 07:03:50;;;;;;;5.90;3.30;;;;;;;16.11;67.49;100093.84;5031082;28;20712;-73
2021/05/11 07:06:17;;;;;;;5.83;4.00;;;;;;;16.28;67.07;100098.59;5031300;28;20219;-73
2021/05/11 07:08:55;;;;;;;4.37;3.17;;;;;;;16.30;67.84;100102.00;5031424;28;20260;-73
2021/05/11 07:13:46;;;;;;;6.07;2.80;;;;;;;16.40;66.22;100099.38;5031496;28;20169;-75
2021/05/11 07:16:11;;;;;;;5.03;3.07;;;;;;;16.52;65.67;100101.81;5032299;28;20196;-75
2021/05/11 07:18:36;;;;;;;4.80;3.13;;;;;;;16.59;64.28;100094.03;5018646;28;20176;-73
2021/05/11 07:21:02;;;;;;;4.63;2.93;;;;;;;16.66;64.77;100089.81;5035190;28;20195;-74
2021/05/11 07:23:28;;;;;;;6.37;2.60;;;;;;;16.59;65.46;100096.72;5036159;28;20200;-73
2021/05/11 07:30:57;;;;;;;6.87;3.20;;;;;;;17.14;62.96;100094.47;5035056;28;20690;-74
2021/05/11 07:33:25;;;;;;;8.10;3.20;;;;;;;17.39;62.52;100095.72;5034961;28;20204;-74
2021/05/11 07:35:50;;;;;;;5.10;2.93;;;;;;;17.71;61.70;100092.75;5034533;28;20329;-74
2021/05/11 07:38:15;;;;;;;5.30;3.47;;;;;;;17.33;61.35;100089.06;5036693;28;20632;-74
2021/05/11 07:40:40;;;;;;;5.10;3.20;;;;;;;17.38;61.02;100081.38;5036297;28;20180;-73
2021/05/11 07:43:07;;;;;;;6.20;3.20;;;;;;;17.50;61.90;100069.47;5036114;28;20196;-73
2021/05/11 07:45:46;;;;;;;9.03;3.80;;;;;;;17.50;61.81;100071.31;5035517;28;20230;-73
2021/05/11 08:04:36;;;;;;;5.10;3.33;;;;;;;18.10;59.68;100063.81;5036223;28;20184;-73
2021/05/11 08:17:44;;;;;;;6.70;4.27;;;;;;;18.31;58.77;100086.06;5035488;28;20231;-74
2021/05/11 08:23:05;;;;;;;5.13;3.20;;;;;;;18.63;57.27;100084.78;5034908;28;20192;-73
2021/05/11 08:28:31;;;;;;;4.43;3.90;;;;;;;18.49;57.81;100101.44;5032985;28;20203;-73
2021/05/11 08:30:57;;;;;;;4.60;3.70;;;;;;;18.38;58.12;100102.50;5035447;28;20199;-73
2021/05/11 08:33:22;;;;;;;6.23;3.90;;;;;;;18.54;57.87;100097.28;5035048;28;20175;-73
2021/05/11 08:35:51;;;;;;;6.70;4.57;;;;;;;18.07;59.38;100097.34;5033233;28;20735;-73
2021/05/11 08:38:17;;;;;;;5.47;3.60;;;;;;;18.12;59.07;100083.41;5033332;28;20161;-73
2021/05/11 08:40:42;;;;;;;6.47;4.47;;;;;;;18.32;59.40;100084.19;5033421;28;20180;-74
2021/05/11 08:43:33;;;;;;;5.67;4.00;;;;;;;18.90;58.51;100079.34;5034335;28;20223;-73
2021/05/11 08:46:03;;;;;;;7.30;3.70;;;;;;;19.12;56.94;100075.34;5033560;28;20241;-75
2021/05/11 08:48:29;;;;;;;7.57;4.20;;;;;;;18.94;57.22;100077.19;5033437;28;20177;-73
2021/05/11 08:51:14;;;;;;;5.07;3.90;;;;;;;18.90;57.54;100073.94;5033382;28;20230;-73
2021/05/11 08:54:10;;;;;;;14.87;4.60;;;;;;;19.06;57.82;100065.16;5033803;28;20153;-73
2021/05/11 09:05:07;;;;;;;5.90;4.03;;;;;;;20.62;52.78;100063.38;5034538;28;20262;-73
2021/05/11 09:07:51;;;;;;;8.17;4.23;;;;;;;20.34;54.48;100072.72;5034289;28;20191;-73
2021/05/11 09:24:46;;;;;;;5.53;3.60;;;;;;;20.10;54.75;100071.59;5034575;28;20219;-74
2021/05/11 10:39:18;;;;;;;8.07;4.77;;;;;;;20.53;54.80;100023.72;5012038;28;20196;-71
2021/05/11 10:48:36;;;;;;;5.50;4.43;;;;;;;21.10;54.23;100011.09;4984648;28;20213;-71
2021/05/11 10:51:04;;;;;;;6.00;4.13;;;;;;;20.79;55.27;100007.31;4956923;28;20587;-71
2021/05/11 10:53:39;;;;;;;7.87;4.70;;;;;;;20.83;55.25;100000.56;4959745;28;20217;-71
2021/05/11 10:59:34;;;;;;;9.10;4.57;;;;;;;21.89;52.57;100003.25;5017037;28;20688;-70
2021/05/11 11:02:24;;;;;;;8.53;4.47;;;;;;;23.00;48.64;99995.78;5016494;28;20168;-71
2021/05/11 11:04:50;;;;;;;5.43;4.43;;;;;;;23.65;47.59;99997.97;5016072;28;20161;-71
2021/05/11 11:07:15;;;;;;;6.23;4.57;;;;;;;24.19;45.16;99993.13;5015617;28;20200;-71
2021/05/11 11:09:54;;;;;;;7.83;4.20;;;;;;;24.67;44.33;99992.69;5015550;28;20231;-71
2021/05/11 11:12:20;;;;;;;8.20;5.07;;;;;;;24.23;44.60;99982.69;5015963;28;20527;-70
2021/05/11 11:14:46;;;;;;;6.80;3.47;;;;;;;26.26;40.77;99992.16;5016418;28;20181;-70
2021/05/11 11:17:14;;;;;;;5.97;3.53;;;;;;;27.07;39.52;99984.91;5015832;28;20201;-71
2021/05/11 11:19:40;;;;;;;9.30;3.60;;;;;;;27.97;38.01;99995.25;5017475;28;20210;-70
2021/05/11 11:24:58;;;;;;;6.13;3.72;;;;;;;26.59;39.38;99981.41;5015757;28;20640;-71
2021/05/11 11:27:28;;;;;;;5.68;4.15;;;;;;;26.25;39.93;99987.75;5016582;28;20304;-71
2021/05/11 11:30:05;;;;;;;5.45;3.95;;;;;;;26.58;39.01;99968.78;5015040;28;20180;-71
2021/05/11 11:32:30;;;;;;;5.18;3.67;;;;;;;27.18;37.76;99967.88;4998819;28;20283;-71
2021/05/11 11:34:59;;;;;;;8.35;3.53;;;;;;;26.04;40.35;99953.16;5016076;28;20648;-71
2021/05/11 11:37:26;;;;;;;7.18;4.13;;;;;;;26.70;39.80;99956.16;5015557;28;20197;-71
2021/05/11 11:39:53;;;;;;;9.45;4.47;;;;;;;26.68;38.79;99950.06;4998511;28;20176;-71
2021/05/11 11:42:23;;;;;;;5.63;3.95;;;;;;;26.89;38.60;99944.44;5014614;28;20564;-70
2021/05/11 11:44:54;;;;;;;7.05;3.60;;;;;;;27.30;38.28;99944.28;5015926;28;20176;-71
2021/05/11 11:47:22;;;;;;;8.02;3.10;;;;;;;28.45;35.42;99928.22;5014703;28;20280;-70
2021/05/11 11:49:49;;;;;;;10.52;3.72;;;;;;;28.94;34.13;99930.25;5015827;28;20177;-71
2021/05/11 11:52:32;;;;;;;6.43;4.35;;;;;;;28.02;35.95;99928.78;5015457;28;20168;-71
2021/05/11 12:00:21;;;;;;;6.75;3.40;;;;;;;27.93;35.92;99935.56;5014706;28;20184;-70
2021/05/11 12:03:01;;;;;;;5.85;4.28;;;;;;;25.82;41.03;99934.09;5015494;28;20679;-70
2021/05/11 12:05:32;;;;;;;4.15;3.25;;;;;;;27.68;37.84;99935.41;5014023;28;20238;-71
2021/05/11 12:08:09;;;;;;;6.70;3.25;;;;;;;27.42;37.77;99944.47;5013950;28;20196;-71
2021/05/11 12:10:39;;;;;;;6.97;3.72;;;;;;;26.86;39.08;99944.84;5014253;28;20625;-71
2021/05/11 12:13:09;;;;;;;7.50;3.95;;;;;;;26.72;38.72;99937.63;5015292;28;20235;-71
2021/05/11 12:15:35;;;;;;;6.22;4.00;;;;;;;28.03;36.44;99941.44;5014361;28;20473;-71
2021/05/11 12:18:06;;;;;;;4.65;3.60;;;;;;;28.24;36.02;99938.44;5015152;28;20189;-71
2021/05/11 12:20:31;;;;;;;4.13;3.45;;;;;;;29.28;34.55;99945.41;5015418;28;20153;-71
2021/05/11 12:23:06;;;;;;;8.30;3.63;;;;;;;29.47;34.09;99935.38;5014545;28;20204;-71
2021/05/11 12:25:31;;;;;;;5.97;3.72;;;;;;;27.90;38.31;99936.84;5015486;28;20172;-71
2021/05/11 12:27:59;;;;;;;3.75;2.50;;;;;;;29.59;34.59;99929.97;5014873;28;20193;-71
2021/05/11 12:30:50;;;;;;;5.93;3.35;;;;;;;29.40;35.94;99929.06;5014833;28;20184;-70
2021/05/11 12:33:17;;;;;;;7.82;3.78;;;;;;;30.02;33.32;99922.53;5013438;28;20189;-71
2021/05/11 12:35:43;;;;;;;6.10;3.50;;;;;;;30.57;32.14;99919.72;5014542;28;20680;-71
2021/05/11 12:38:15;;;;;;;3.65;3.03;;;;;;;29.43;33.89;99904.72;5013226;28;20209;-70
2021/05/11 12:40:59;;;;;;;7.03;3.28;;;;;;;28.60;35.69;99896.66;5014523;28;20172;-70
2021/05/11 12:43:48;;;;;;;4.47;2.63;;;;;;;29.83;34.48;99901.56;5013033;28;20569;-70
2021/05/11 12:46:37;;;;;;;6.22;2.80;;;;;;;30.81;31.80;99906.88;5014580;28;20209;-70
2021/05/11 12:49:17;;;;;;;4.20;2.65;;;;;;;29.88;33.64;99893.47;5014540;28;20514;-71
2021/05/11 12:51:45;;;;;;;7.55;3.40;;;;;;;30.56;32.83;99904.25;5014107;28;20525;-70
2021/05/11 12:54:23;;;;;;;5.53;3.20;;;;;;;30.21;32.91;99901.34;5013158;28;20272;-71
2021/05/11 12:57:02;;;;;;;4.55;2.47;;;;;;;30.92;32.56;99896.97;5014138;28;20196;-71
2021/05/11 13:02:32;;;;;;;5.95;3.10;;;;;;;30.58;32.01;99890.25;5013045;28;20211;-70
2021/05/11 13:09:19;;;;;;;7.80;3.15;;;;;;;30.03;33.17;99887.59;5014114;28;20663;-71
2021/05/11 13:16:19;;;;;;;6.55;3.40;;;;;;;30.76;32.36;99902.06;5013936;28;20200;-71
2021/05/11 13:26:45;;;;;;;6.95;3.30;;;;;;;29.27;35.30;99872.28;5013909;28;20269;-70
2021/05/11 13:29:20;;;;;;;4.90;2.90;;;;;;;30.60;32.59;99882.63;5012503;28;20169;-71
2021/05/11 13:31:52;;;;;;;8.63;3.33;;;;;;;29.07;35.45;99867.00;5014030;28;20589;-70
2021/05/11 13:34:20;;;;;;;8.38;3.58;;;;;;;28.88;35.71;99870.72;5013981;28;20605;-70
2021/05/11 13:36:45;;;;;;;7.65;3.47;;;;;;;29.82;35.06;99858.63;5013521;28;20683;-70
2021/05/11 13:39:11;;;;;;;5.65;2.95;;;;;;;31.13;32.47;99860.56;5012431;28;20169;-70
2021/05/11 13:41:37;;;;;;;4.68;2.50;;;;;;;32.24;31.10;99858.66;4995957;28;20172;-71
2021/05/11 13:44:04;;;;;;;5.70;3.13;;;;;;;31.04;32.25;99862.84;5013161;28;20703;-71
2021/05/11 13:46:29;;;;;;;9.43;2.95;;;;;;;31.06;31.79;99852.44;5013287;28;20219;-70
2021/05/11 13:48:55;;;;;;;4.15;3.08;;;;;;;28.50;36.43;99849.66;5013967;28;20206;-70
2021/05/11 13:51:20;;;;;;;6.88;3.20;;;;;;;28.22;38.01;99841.75;5013274;28;20184;-72
2021/05/11 13:53:49;;;;;;;9.48;2.72;;;;;;;30.11;33.93;99849.63;5012738;28;20177;-71
2021/05/11 14:04:04;;;;;;;5.00;3.30;;;;;;;31.01;31.33;99851.47;5012474;28;20546;-71
2021/05/11 14:06:29;;;;;;;10.20;3.78;;;;;;;30.96;31.06;99852.19;5012295;28;20196;-72
2021/05/11 14:08:55;;;;;;;4.82;3.13;;;;;;;28.92;35.13;99845.34;5013468;28;20180;-72
2021/05/11 14:11:21;;;;;;;5.28;3.40;;;;;;;29.11;34.90;99846.25;5013769;28;20188;-71
2021/05/11 14:13:46;;;;;;;5.05;2.65;;;;;;;28.97;35.82;99838.31;5013272;28;20173;-70
2021/05/11 14:16:11;;;;;;;6.18;3.13;;;;;;;27.76;38.38;99828.25;5011760;28;20169;-71
2021/05/11 14:18:37;;;;;;;7.20;3.25;;;;;;;28.78;36.15;99830.00;5013484;28;20191;-70
2021/05/11 14:21:02;;;;;;;5.88;3.35;;;;;;;27.15;39.18;99825.88;5013351;28;20181;-72
2021/05/11 14:23:28;;;;;;;6.00;3.70;;;;;;;27.50;38.63;99815.44;5012874;28;20205;-71
2021/05/11 14:25:53;;;;;;;11.27;3.10;;;;;;;28.47;36.86;99821.81;5012166;28;20195;-70
2021/05/11 14:28:19;;;;;;;6.95;3.38;;;;;;;27.84;39.18;99821.69;5016050;28;20180;-70
2021/05/11 14:30:44;;;;;;;8.55;2.92;;;;;;;28.88;36.37;99818.56;5016340;28;20637;-71
2021/05/11 14:33:09;;;;;;;7.15;3.63;;;;;;;28.67;37.43;99827.16;5017337;28;20184;-70
2021/05/11 14:35:34;;;;;;;7.15;2.90;;;;;;;30.30;33.24;99820.16;5017138;28;20590;-70
2021/05/11 14:38:00;;;;;;;5.85;2.95;;;;;;;30.64;33.41;99820.50;5015519;28;20204;-70
2021/05/11 14:40:26;;;;;;;4.38;2.63;;;;;;;30.04;34.82;99824.09;5015930;28;20177;-71
2021/05/11 14:42:53;;;;;;;5.68;3.03;;;;;;;29.59;35.14;99811.75;5016769;28;20199;-71
2021/05/11 14:45:19;;;;;;;5.30;2.88;;;;;;;30.48;32.93;99822.84;5017285;28;20173;-71
2021/05/11 14:47:47;;;;;;;5.63;3.22;;;;;;;29.78;34.78;99813.44;5015556;28;20569;-72
2021/05/11 14:50:18;;;;;;;4.35;3.40;;;;;;;29.70;34.73;99813.72;5015591;28;20260;-70
2021/05/11 14:52:44;;;;;;;4.97;3.75;;;;;;;28.46;36.68;99811.88;5016645;28;20169;-70
2021/05/11 14:55:11;;;;;;;6.40;3.88;;;;;;;29.04;36.02;99812.50;5015521;28;20297;-72
2021/05/11 14:57:36;;;;;;;5.82;3.42;;;;;;;29.10;36.74;99819.00;5015431;28;20557;-72
2021/05/11 15:00:02;;;;;;;4.22;3.22;;;;;;;27.80;38.54;99809.47;4998943;28;20180;-72
2021/05/11 15:02:28;;;;;;;4.50;3.00;;;;;;;28.43;37.50;99812.34;5015338;28;20212;-71
2021/05/11 15:04:53;;;;;;;5.68;3.50;;;;;;;28.53;36.73;99805.28;5015427;28;20180;-67
2021/05/11 15:07:19;;;;;;;4.50;3.38;;;;;;;28.86;36.83;99807.78;5015337;28;20192;-68
2021/05/11 15:09:44;;;;;;;6.70;3.78;;;;;;;28.90;36.58;99805.44;5017029;28;20192;-68
2021/05/11 15:12:10;;;;;;;5.63;3.25;;;;;;;29.11;36.85;99799.53;5017433;28;20177;-68
2021/05/11 15:14:35;;;;;;;7.30;3.33;;;;;;;27.20;40.23;99792.38;5016496;28;20253;-67
2021/05/11 15:19:44;;;;;;;4.93;3.17;;;;;;;27.94;39.33;99797.41;5015466;28;20267;-67
2021/05/11 15:22:09;;;;;;;7.47;3.10;;;;;;;27.81;38.52;99794.72;5016039;28;20168;-68
2021/05/11 15:24:34;;;;;;;8.32;3.97;;;;;;;28.15;37.47;99798.97;4998615;28;20184;-67
2021/05/11 15:27:00;;;;;;;7.00;4.32;;;;;;;27.07;39.29;99802.28;5015094;28;20192;-67
2021/05/11 15:29:25;;;;;;;6.97;3.80;;;;;;;27.19;40.17;99813.44;5015031;28;20181;-68
2021/05/11 15:31:50;;;;;;;4.97;3.17;;;;;;;27.73;40.09;99808.66;5016254;28;20173;-67
2021/05/11 15:34:16;;;;;;;6.45;3.83;;;;;;;27.54;39.48;99799.44;5016301;28;20173;-68
2021/05/11 15:36:41;;;;;;;14.07;3.83;;;;;;;27.18;40.34;99799.97;5039646;23;20183;-72
2021/05/11 15:39:07;;;;;;;17.05;4.38;;;;;;;26.96;39.92;99789.22;5034623;28;20261;-72